createdAt,value
2023-05-07T00:01:23.276Z,14.55
2023-05-07T00:03:50.773Z,13.93
2023-05-07T00:06:18.270Z,15.07
2023-05-07T00:08:45.800Z,14.70
2023-05-07T00:11:14.429Z,14.68
2023-05-07T00:13:41.744Z,15.30
2023-05-07T00:16:09.077Z,15.60
2023-05-07T00:18:36.383Z,15.90
2023-05-07T00:21:03.724Z,15.20
2023-05-07T00:23:30.996Z,15.95
2023-05-07T00:25:58.317Z,15.75
2023-05-07T00:28:26.998Z,15.77
2023-05-07T00:30:54.759Z,16.05
2023-05-07T00:33:23.028Z,16.55
2023-05-07T00:35:50.989Z,15.80
2023-05-07T00:38:18.316Z,14.90
2023-05-07T00:40:46.265Z,15.88
2023-05-07T00:43:13.565Z,15.38
2023-05-07T00:45:42.375Z,16.27
2023-05-07T00:48:09.747Z,15.63
2023-05-07T00:50:37.109Z,15.90
2023-05-07T00:53:04.516Z,15.68
2023-05-07T00:55:31.886Z,15.65
2023-05-07T00:57:59.188Z,14.75
2023-05-07T01:00:26.611Z,15.45
2023-05-07T01:02:55.368Z,15.35
2023-05-07T01:05:24.766Z,15.35
2023-05-07T01:07:53.756Z,15.80
2023-05-07T01:10:21.350Z,15.27
2023-05-07T01:12:49.320Z,15.65
2023-05-07T01:15:17.033Z,15.63
2023-05-07T01:17:44.836Z,14.45
2023-05-07T01:20:15.093Z,14.10
2023-05-07T01:22:47.636Z,14.50
2023-05-07T01:25:17.099Z,14.07
2023-05-07T01:27:44.388Z,13.07
2023-05-07T01:30:12.468Z,11.93
2023-05-07T01:32:45.852Z,14.80
2023-05-07T01:35:14.003Z,13.45
2023-05-07T01:37:41.512Z,12.85
2023-05-07T01:40:11.345Z,13.43
2023-05-07T01:42:39.138Z,12.73
2023-05-07T01:45:07.051Z,12.40
2023-05-07T01:47:34.532Z,12.38
2023-05-07T01:50:02.190Z,12.82
2023-05-07T01:52:29.909Z,11.80
2023-05-07T01:54:57.236Z,12.57
2023-05-07T01:57:26.310Z,13.05
2023-05-07T01:59:53.634Z,12.50
2023-05-07T02:02:21.010Z,12.82
2023-05-07T02:04:48.332Z,12.75
2023-05-07T02:07:15.680Z,13.50
2023-05-07T02:09:44.467Z,14.15
2023-05-07T02:12:11.778Z,14.00
2023-05-07T02:14:40.456Z,14.95
2023-05-07T02:17:07.754Z,15.13
2023-05-07T02:19:35.225Z,15.35
2023-05-07T02:22:02.516Z,16.83
2023-05-07T02:24:29.813Z,15.82
2023-05-07T02:26:57.121Z,16.48
2023-05-07T02:29:24.406Z,16.20
2023-05-07T02:31:53.900Z,16.20
2023-05-07T02:34:21.348Z,16.88
2023-05-07T02:36:48.636Z,17.73
2023-05-07T02:39:16.436Z,18.38
2023-05-07T02:41:43.741Z,19.15
2023-05-07T02:44:11.077Z,17.88
2023-05-07T02:46:38.377Z,17.67
2023-05-07T02:49:07.109Z,17.58
2023-05-07T02:51:34.430Z,16.63
2023-05-07T02:54:02.410Z,18.92
2023-05-07T02:56:29.876Z,19.23
2023-05-07T02:58:57.573Z,18.35
2023-05-07T03:01:24.966Z,19.45
2023-05-07T03:03:52.855Z,19.52
2023-05-07T03:06:21.790Z,20.10
2023-05-07T03:08:49.108Z,20.83
2023-05-07T03:11:16.425Z,20.80
2023-05-07T03:13:43.695Z,20.80
2023-05-07T03:16:11.164Z,20.38
2023-05-07T03:18:38.517Z,19.13
2023-05-07T03:21:05.946Z,18.05
2023-05-07T03:23:34.593Z,19.08
2023-05-07T03:26:01.930Z,19.25
2023-05-07T03:28:29.228Z,17.90
2023-05-07T03:30:56.544Z,18.77
2023-05-07T03:33:23.924Z,16.25
2023-05-07T03:35:51.446Z,15.55
2023-05-07T03:38:18.766Z,15.80
2023-05-07T03:40:47.438Z,16.80
2023-05-07T03:43:14.733Z,16.13
2023-05-07T03:45:42.038Z,17.08
2023-05-07T03:48:09.449Z,16.50
2023-05-07T03:50:36.992Z,15.98
2023-05-07T03:53:04.282Z,15.43
2023-05-07T03:55:31.555Z,16.60
2023-05-07T03:58:00.967Z,16.25
2023-05-07T04:00:28.401Z,16.05
2023-05-07T04:02:55.817Z,16.75
2023-05-07T04:05:23.300Z,16.58
2023-05-07T04:07:50.641Z,16.42
2023-05-07T04:10:18.019Z,16.45
2023-05-07T04:12:45.492Z,17.85
2023-05-07T04:15:17.321Z,17.52
2023-05-07T04:17:44.684Z,16.67
2023-05-07T04:20:12.865Z,17.42
2023-05-07T04:22:40.328Z,16.27
2023-05-07T04:25:08.915Z,16.58
2023-05-07T04:27:36.408Z,15.85
2023-05-07T04:30:03.924Z,17.23
2023-05-07T04:32:32.673Z,16.10
2023-05-07T04:35:00.036Z,14.75
2023-05-07T04:37:27.496Z,15.65
2023-05-07T04:39:54.826Z,15.35
2023-05-07T04:42:22.109Z,15.18
2023-05-07T04:44:49.450Z,14.82
2023-05-07T04:47:16.820Z,15.82
2023-05-07T04:49:45.435Z,14.70
2023-05-07T04:52:12.751Z,14.63
2023-05-07T04:54:40.085Z,13.93
2023-05-07T04:57:07.354Z,12.45
2023-05-07T04:59:34.736Z,11.48
2023-05-07T05:02:02.277Z,11.75
2023-05-07T05:04:29.697Z,10.90
2023-05-07T05:06:58.344Z,10.82
2023-05-07T05:09:25.920Z,10.30
2023-05-07T05:11:53.209Z,10.27
2023-05-07T05:14:20.595Z,10.15
2023-05-07T05:16:47.913Z,9.07
2023-05-07T05:19:15.305Z,9.10
2023-05-07T05:21:42.641Z,8.25
2023-05-07T05:24:11.282Z,8.32
2023-05-07T05:26:38.584Z,8.23
2023-05-07T05:29:06.064Z,8.88
2023-05-07T05:31:34.436Z,7.57
2023-05-07T05:34:01.711Z,6.90
2023-05-07T05:36:28.986Z,6.88
2023-05-07T05:38:57.236Z,7.05
2023-05-07T05:41:26.041Z,6.80
2023-05-07T05:43:53.382Z,6.10
2023-05-07T05:46:20.836Z,6.57
2023-05-07T05:48:48.214Z,6.05
2023-05-07T05:51:15.544Z,5.68
2023-05-07T05:53:42.832Z,5.60
2023-05-07T05:56:10.296Z,5.45
2023-05-07T05:58:38.939Z,5.22
2023-05-07T06:01:06.323Z,5.05
2023-05-07T06:03:34.203Z,4.60
2023-05-07T06:06:01.906Z,4.78
2023-05-07T06:08:30.849Z,4.82
2023-05-07T06:10:58.346Z,4.70
2023-05-07T06:13:26.784Z,4.82
2023-05-07T06:15:55.648Z,5.18
2023-05-07T06:18:22.981Z,4.78
2023-05-07T06:20:50.300Z,4.15
2023-05-07T06:23:18.206Z,4.20
2023-05-07T06:25:50.825Z,4.40
2023-05-07T06:28:18.147Z,4.00
2023-05-07T06:30:45.943Z,4.28
2023-05-07T06:33:14.606Z,4.00
2023-05-07T06:35:41.951Z,4.22
2023-05-07T06:38:09.244Z,4.53
2023-05-07T06:40:36.573Z,4.07
2023-05-07T06:43:03.840Z,4.13
2023-05-07T06:45:31.149Z,4.38
2023-05-07T06:47:58.559Z,4.18
2023-05-07T06:50:27.220Z,4.07
2023-05-07T06:52:54.518Z,4.18
2023-05-07T06:55:21.898Z,4.30
2023-05-07T06:57:49.178Z,3.88
2023-05-07T07:00:16.900Z,3.47
2023-05-07T07:02:44.404Z,3.60
2023-05-07T07:05:11.821Z,3.20
2023-05-07T07:07:40.474Z,3.20
2023-05-07T07:10:08.736Z,3.10
2023-05-07T07:12:36.179Z,3.03
2023-05-07T07:15:03.559Z,3.08
2023-05-07T07:17:30.883Z,2.63
2023-05-07T07:19:58.216Z,2.80
2023-05-07T07:22:25.518Z,2.60
2023-05-07T07:24:54.177Z,2.80
2023-05-07T07:27:21.452Z,2.47
2023-05-07T07:29:49.012Z,2.80
2023-05-07T07:32:16.619Z,2.72
2023-05-07T07:34:43.924Z,2.60
2023-05-07T07:37:11.326Z,2.92
2023-05-07T07:39:39.588Z,2.95
2023-05-07T07:42:08.284Z,2.70
2023-05-07T07:44:35.621Z,2.65
2023-05-07T07:47:02.973Z,3.20
2023-05-07T07:49:30.325Z,2.80
2023-05-07T07:52:00.195Z,3.25
2023-05-07T07:54:27.579Z,2.80
2023-05-07T07:56:55.066Z,2.72
2023-05-07T07:59:23.693Z,2.83
2023-05-07T08:01:55.389Z,2.55
2023-05-07T08:04:23.012Z,2.58
2023-05-07T08:06:50.494Z,2.70
2023-05-07T08:09:17.918Z,2.60
2023-05-07T08:11:45.264Z,2.20
2023-05-07T08:14:13.068Z,2.60
2023-05-07T08:16:41.727Z,2.50
2023-05-07T08:19:09.116Z,2.88
2023-05-07T08:21:36.394Z,2.85
2023-05-07T08:24:03.731Z,2.70
2023-05-07T08:26:31.065Z,2.60
2023-05-07T08:28:58.467Z,2.20
2023-05-07T08:31:25.898Z,2.80
2023-05-07T08:33:54.576Z,2.85
2023-05-07T08:36:21.891Z,2.95
2023-05-07T08:38:50.387Z,2.78
2023-05-07T08:41:17.701Z,3.17
2023-05-07T08:43:47.679Z,2.75
2023-05-07T08:46:18.827Z,2.75
2023-05-07T08:48:46.193Z,2.70
2023-05-07T08:51:19.272Z,2.53
2023-05-07T08:53:46.994Z,2.95
2023-05-07T08:56:16.067Z,2.72
2023-05-07T08:58:43.388Z,2.80
2023-05-07T09:01:11.382Z,2.65
2023-05-07T09:03:39.873Z,2.45
2023-05-07T09:06:07.443Z,2.70
2023-05-07T09:08:36.111Z,2.70
2023-05-07T09:11:03.546Z,2.45
2023-05-07T09:13:31.278Z,2.33
2023-05-07T09:15:58.619Z,3.33
2023-05-07T09:18:26.014Z,2.60
2023-05-07T09:20:53.337Z,2.60
2023-05-07T09:23:20.648Z,2.50
2023-05-07T09:25:49.283Z,2.63
2023-05-07T09:28:16.637Z,3.00
2023-05-07T09:30:43.974Z,2.63
2023-05-07T09:33:11.364Z,2.72
2023-05-07T09:35:39.571Z,2.65
2023-05-07T09:38:06.912Z,2.30
2023-05-07T09:40:34.189Z,2.00
2023-05-07T09:43:12.525Z,2.33
2023-05-07T09:45:40.004Z,2.28
2023-05-07T09:48:08.116Z,2.17
2023-05-07T09:50:37.604Z,2.20
2023-05-07T09:53:05.818Z,2.10
2023-05-07T09:55:33.147Z,2.10
2023-05-07T09:58:00.627Z,2.35
2023-05-07T10:00:29.498Z,2.38
2023-05-07T10:02:58.281Z,2.58
2023-05-07T10:05:25.819Z,1.90
2023-05-07T10:07:54.537Z,2.05
2023-05-07T10:10:21.901Z,2.00
2023-05-07T10:12:49.353Z,2.00
2023-05-07T10:15:16.835Z,2.67
2023-05-07T10:17:46.261Z,2.55
2023-05-07T10:20:13.907Z,2.55
2023-05-07T10:22:43.722Z,2.50
2023-05-07T10:25:15.878Z,2.42
2023-05-07T10:27:44.669Z,2.17
2023-05-07T10:30:17.108Z,2.25
2023-05-07T10:32:47.572Z,2.05
2023-05-07T10:35:17.568Z,2.00
2023-05-07T10:37:45.215Z,2.03
2023-05-07T10:40:13.485Z,2.20
2023-05-07T10:42:40.980Z,1.90
2023-05-07T10:45:17.746Z,2.00
2023-05-07T10:48:01.911Z,1.60
2023-05-07T10:50:30.720Z,1.50
2023-05-07T10:53:16.833Z,1.83
2023-05-07T10:55:44.174Z,1.85
2023-05-07T10:58:34.170Z,2.38
2023-05-07T11:01:02.209Z,1.98
2023-05-07T11:03:29.849Z,1.95
2023-05-07T11:06:14.450Z,1.88
2023-05-07T11:08:54.331Z,1.70
2023-05-07T11:11:21.763Z,1.58
2023-05-07T11:13:50.280Z,1.50
2023-05-07T11:16:18.959Z,1.60
2023-05-07T11:18:49.988Z,1.58
2023-05-07T11:21:32.464Z,1.80
2023-05-07T11:24:01.763Z,1.63
2023-05-07T11:26:30.006Z,1.73
2023-05-07T11:29:01.170Z,1.90
2023-05-07T11:31:30.658Z,1.80
2023-05-07T11:34:01.469Z,1.95
2023-05-07T11:36:33.449Z,1.90
2023-05-07T11:39:02.151Z,1.60
2023-05-07T11:41:35.637Z,2.10
2023-05-07T11:44:02.997Z,1.80
2023-05-07T11:46:30.626Z,1.88
2023-05-07T11:48:58.446Z,1.88
2023-05-07T11:51:27.781Z,1.50
2023-05-07T11:53:55.352Z,1.67
2023-05-07T11:56:24.004Z,1.40
2023-05-07T11:58:52.958Z,1.98
2023-05-07T12:01:20.297Z,1.63
2023-05-07T12:03:48.308Z,1.40
2023-05-07T12:06:16.980Z,1.58
2023-05-07T12:08:47.030Z,1.77
2023-05-07T12:11:17.092Z,1.75
2023-05-07T12:13:45.833Z,1.55
2023-05-07T12:16:13.451Z,1.70
2023-05-07T12:18:40.981Z,1.60
2023-05-07T12:21:09.143Z,1.40
2023-05-07T12:23:37.478Z,1.60
2023-05-07T12:26:07.218Z,1.90
2023-05-07T12:28:39.314Z,1.70
2023-05-07T12:31:08.274Z,1.60
2023-05-07T12:33:36.315Z,1.85
2023-05-07T12:36:05.495Z,1.80
2023-05-07T12:38:36.983Z,1.45
2023-05-07T12:41:04.371Z,1.70
2023-05-07T12:43:32.017Z,3.20
2023-05-07T12:46:01.790Z,2.05
2023-05-07T12:48:30.739Z,4.13
2023-05-07T12:50:58.637Z,1.90
2023-05-07T12:53:26.876Z,1.88
2023-05-07T12:55:55.070Z,1.90
2023-05-07T12:58:22.974Z,1.77
2023-05-07T13:00:50.946Z,1.75
2023-05-07T13:03:25.902Z,2.40
2023-05-07T13:05:58.646Z,1.95
2023-05-07T13:08:27.486Z,2.10
2023-05-07T13:10:55.012Z,1.80
2023-05-07T13:13:22.524Z,1.95
2023-05-07T13:15:50.208Z,14.57
2023-05-07T13:18:17.640Z,4.95
2023-05-07T13:20:45.086Z,9.30
2023-05-07T13:23:13.814Z,4.53
2023-05-07T13:25:41.107Z,3.10
2023-05-07T13:28:11.240Z,2.95
2023-05-07T13:30:38.990Z,2.50
2023-05-07T13:33:06.372Z,4.05
2023-05-07T13:35:33.694Z,2.40
2023-05-07T13:38:00.985Z,2.78
2023-05-07T13:40:29.760Z,2.90
2023-05-07T13:42:59.389Z,3.15
2023-05-07T13:45:27.912Z,3.05
2023-05-07T13:47:55.440Z,2.97
2023-05-07T13:50:22.820Z,2.90
2023-05-07T13:52:51.565Z,3.08
2023-05-07T13:55:19.543Z,2.95
2023-05-07T13:57:48.680Z,3.30
2023-05-07T14:00:17.260Z,3.42
2023-05-07T14:02:44.959Z,3.53
2023-05-07T14:05:14.285Z,3.97
2023-05-07T14:07:41.628Z,4.18
2023-05-07T14:10:10.767Z,4.60
2023-05-07T14:12:38.479Z,5.18
2023-05-07T14:15:07.793Z,5.00
2023-05-07T14:17:35.199Z,4.25
2023-05-07T14:20:02.573Z,4.75
2023-05-07T14:22:29.913Z,4.75
2023-05-07T14:25:06.292Z,5.05
2023-05-07T14:27:34.704Z,4.90
2023-05-07T14:30:02.060Z,4.60
2023-05-07T14:32:30.803Z,4.28
2023-05-07T14:34:58.103Z,3.65
2023-05-07T14:37:25.608Z,3.30
2023-05-07T14:39:52.969Z,3.28
2023-05-07T14:42:20.292Z,3.90
2023-05-07T14:44:49.213Z,3.97
2023-05-07T14:47:17.554Z,3.75
2023-05-07T14:49:48.419Z,3.03
2023-05-07T14:52:16.221Z,2.63
2023-05-07T14:54:43.613Z,3.05
2023-05-07T14:57:14.151Z,2.72
2023-05-07T14:59:42.316Z,8.82
2023-05-07T15:02:09.831Z,2.53
2023-05-07T15:04:37.279Z,2.65
2023-05-07T15:07:06.032Z,2.08
2023-05-07T15:09:33.340Z,2.17
2023-05-07T15:12:01.129Z,3.00
2023-05-07T15:14:28.435Z,2.72
2023-05-07T15:16:56.057Z,5.15
2023-05-07T15:19:25.802Z,2.90
2023-05-07T15:21:53.136Z,3.00
2023-05-07T15:24:21.781Z,2.90
2023-05-07T15:26:49.122Z,2.38
2023-05-07T15:29:16.514Z,2.80
2023-05-07T15:31:43.869Z,2.67
2023-05-07T15:34:11.361Z,2.63
2023-05-07T15:36:38.662Z,2.50
2023-05-07T15:39:05.983Z,2.40
2023-05-07T15:41:34.651Z,3.78
2023-05-07T15:44:01.973Z,3.42
2023-05-07T15:46:29.329Z,3.30
2023-05-07T15:48:57.070Z,2.60
2023-05-07T15:51:24.457Z,2.58
2023-05-07T15:53:53.249Z,3.10
2023-05-07T15:56:21.214Z,2.58
2023-05-07T15:58:50.272Z,2.67
2023-05-07T16:01:17.646Z,2.65
2023-05-07T16:03:45.138Z,3.42
2023-05-07T16:06:12.911Z,2.95
2023-05-07T16:08:40.372Z,2.60
2023-05-07T16:11:07.696Z,2.63
2023-05-07T16:13:35.712Z,2.40
2023-05-07T16:16:04.593Z,2.60
2023-05-07T16:18:31.982Z,3.00
2023-05-07T16:21:00.485Z,3.35
2023-05-07T16:23:27.854Z,2.85
2023-05-07T16:25:55.306Z,2.92
2023-05-07T16:28:24.794Z,3.55
2023-05-07T16:30:52.930Z,3.10
2023-05-07T16:33:21.607Z,3.60
2023-05-07T16:35:52.493Z,3.80
2023-05-07T16:38:19.869Z,4.15
2023-05-07T16:40:47.382Z,4.38
2023-05-07T16:43:14.718Z,4.20
2023-05-07T16:45:42.037Z,4.03
2023-05-07T16:48:09.534Z,3.90
2023-05-07T16:50:38.285Z,4.18
2023-05-07T16:53:06.304Z,4.10
2023-05-07T16:55:38.590Z,4.32
2023-05-07T16:58:06.220Z,4.18
2023-05-07T17:00:48.551Z,4.72
2023-05-07T17:03:18.284Z,5.05
2023-05-07T17:05:47.360Z,5.53
2023-05-07T17:08:14.825Z,4.25
2023-05-07T17:10:42.304Z,4.57
2023-05-07T17:13:09.739Z,4.88
2023-05-07T17:15:37.156Z,5.47
2023-05-07T17:18:04.618Z,4.80
2023-05-07T17:20:32.043Z,5.32
2023-05-07T17:23:00.748Z,4.85
2023-05-07T17:25:28.113Z,5.55
2023-05-07T17:27:55.434Z,5.20
2023-05-07T17:30:22.866Z,5.68
2023-05-07T17:32:50.440Z,5.15
2023-05-07T17:35:17.795Z,5.22
2023-05-07T17:37:52.089Z,5.90
2023-05-07T17:40:22.161Z,6.00
2023-05-07T17:42:49.928Z,6.07
2023-05-07T17:45:17.694Z,6.35
2023-05-07T17:47:45.313Z,6.15
2023-05-07T17:50:13.128Z,6.55
2023-05-07T17:52:41.614Z,6.45
2023-05-07T17:55:09.470Z,6.53
2023-05-07T17:57:38.473Z,6.43
2023-05-07T18:00:07.512Z,6.47
2023-05-07T18:02:34.978Z,6.55
2023-05-07T18:05:02.378Z,6.18
2023-05-07T18:07:29.675Z,5.93
2023-05-07T18:09:56.994Z,6.95
2023-05-07T18:12:26.210Z,5.68
2023-05-07T18:14:56.168Z,5.68
2023-05-07T18:17:24.074Z,6.78
2023-05-07T18:19:54.728Z,6.00
2023-05-07T18:22:22.687Z,6.45
2023-05-07T18:24:51.166Z,5.78
2023-05-07T18:27:18.607Z,6.88
2023-05-07T18:29:46.162Z,7.18
2023-05-07T18:32:14.884Z,7.05
2023-05-07T18:34:42.314Z,6.80
2023-05-07T18:37:09.641Z,6.75
2023-05-07T18:39:37.205Z,7.22
2023-05-07T18:42:05.135Z,7.35
2023-05-07T18:44:33.133Z,7.45
2023-05-07T18:47:00.521Z,7.20
2023-05-07T18:49:29.176Z,7.57
2023-05-07T18:51:56.479Z,7.88
2023-05-07T18:54:23.876Z,6.88
2023-05-07T18:56:51.322Z,7.50
2023-05-07T18:59:18.648Z,6.88
2023-05-07T19:01:46.094Z,7.22
2023-05-07T19:04:13.645Z,7.22
2023-05-07T19:06:42.318Z,7.28
2023-05-07T19:09:09.707Z,7.32
2023-05-07T19:11:37.015Z,7.20
2023-05-07T19:14:05.172Z,7.43
2023-05-07T19:16:36.632Z,6.90
2023-05-07T19:19:04.266Z,7.00
2023-05-07T19:21:31.922Z,7.03
2023-05-07T19:24:00.585Z,6.88
2023-05-07T19:26:27.866Z,6.78
2023-05-07T19:29:15.668Z,7.65
2023-05-07T19:31:44.168Z,7.38
2023-05-07T19:34:13.113Z,6.78
2023-05-07T19:36:40.565Z,8.20
2023-05-07T19:39:09.224Z,7.82
2023-05-07T19:41:36.909Z,7.90
2023-05-07T19:44:04.337Z,7.93
2023-05-07T19:46:31.677Z,8.48
2023-05-07T19:48:59.000Z,7.45
2023-05-07T19:51:26.426Z,8.10
2023-05-07T19:53:53.857Z,7.97
2023-05-07T19:56:22.523Z,9.32
2023-05-07T19:58:50.910Z,10.52
2023-05-07T20:01:18.291Z,8.50
2023-05-07T20:03:46.485Z,7.43
2023-05-07T20:06:13.999Z,8.20
2023-05-07T20:08:43.251Z,8.82
2023-05-07T20:11:12.566Z,8.93
2023-05-07T20:13:41.225Z,8.88
2023-05-07T20:16:08.613Z,9.57
2023-05-07T20:18:35.934Z,9.88
2023-05-07T20:21:04.413Z,9.35
2023-05-07T20:23:31.697Z,10.02
2023-05-07T20:25:59.089Z,9.40
2023-05-07T20:28:26.803Z,9.07
2023-05-07T20:30:55.570Z,9.63
2023-05-07T20:33:22.909Z,11.00
2023-05-07T20:35:50.311Z,11.73
2023-05-07T20:38:17.665Z,11.18
2023-05-07T20:40:45.216Z,10.88
2023-05-07T20:43:12.552Z,11.02
2023-05-07T20:45:39.908Z,11.20
2023-05-07T20:48:08.681Z,10.63
2023-05-07T20:50:36.048Z,10.43
2023-05-07T20:53:03.373Z,10.20
2023-05-07T20:55:30.762Z,11.27
2023-05-07T20:57:58.046Z,11.18
2023-05-07T21:00:25.364Z,11.45
2023-05-07T21:02:53.227Z,11.82
2023-05-07T21:05:22.132Z,13.40
2023-05-07T21:07:49.415Z,14.35
2023-05-07T21:10:16.744Z,14.45
2023-05-07T21:12:44.056Z,14.18
2023-05-07T21:15:11.865Z,14.25
2023-05-07T21:17:39.201Z,15.45
2023-05-07T21:20:07.262Z,15.93
2023-05-07T21:22:35.953Z,16.58
2023-05-07T21:25:03.400Z,15.55
2023-05-07T21:27:30.733Z,16.58
2023-05-07T21:30:03.423Z,17.10
2023-05-07T21:32:31.020Z,17.58
2023-05-07T21:34:59.517Z,17.58
2023-05-07T21:37:26.815Z,18.27
2023-05-07T21:39:55.490Z,19.30
2023-05-07T21:42:23.476Z,19.02
2023-05-07T21:44:50.918Z,19.13
2023-05-07T21:47:18.328Z,18.88
2023-05-07T21:49:45.708Z,18.73
2023-05-07T21:52:13.424Z,18.50
2023-05-07T21:54:41.134Z,18.58
2023-05-07T21:57:10.083Z,17.67
2023-05-07T21:59:38.083Z,16.60
2023-05-07T22:02:05.613Z,19.13
2023-05-07T22:04:33.090Z,19.27
2023-05-07T22:07:00.479Z,19.52
2023-05-07T22:09:27.848Z,20.40
2023-05-07T22:11:55.463Z,21.52
2023-05-07T22:14:24.092Z,21.08
2023-05-07T22:16:51.631Z,20.20
2023-05-07T22:19:19.048Z,21.00
2023-05-07T22:21:46.798Z,20.67
2023-05-07T22:24:14.245Z,19.52
2023-05-07T22:26:41.572Z,19.15
2023-05-07T22:29:08.855Z,18.52
2023-05-07T22:31:37.597Z,17.38
2023-05-07T22:34:04.942Z,17.85
2023-05-07T22:36:32.257Z,17.10
2023-05-07T22:38:59.667Z,17.70
2023-05-07T22:41:27.018Z,16.95
2023-05-07T22:43:54.330Z,15.32
2023-05-07T22:46:21.688Z,15.38
2023-05-07T22:48:50.457Z,14.80
2023-05-07T22:51:20.406Z,15.52
2023-05-07T22:53:47.677Z,15.13
2023-05-07T22:56:15.697Z,15.20
2023-05-07T22:58:43.065Z,13.85
2023-05-07T23:01:14.155Z,13.57
2023-05-07T23:03:41.782Z,14.73
2023-05-07T23:06:10.598Z,14.68
2023-05-07T23:08:37.945Z,15.77
2023-05-07T23:11:05.366Z,15.93
2023-05-07T23:13:32.736Z,17.55
2023-05-07T23:16:00.051Z,18.00
2023-05-07T23:18:30.089Z,18.42
2023-05-07T23:20:57.479Z,19.35
2023-05-07T23:23:26.227Z,19.25
2023-05-07T23:25:53.647Z,19.55
2023-05-07T23:28:20.996Z,21.77
2023-05-07T23:30:48.397Z,21.55
2023-05-07T23:33:15.752Z,22.80
2023-05-07T23:35:43.123Z,22.85
2023-05-07T23:38:10.436Z,22.90
2023-05-07T23:40:39.144Z,23.10
2023-05-07T23:43:06.468Z,23.52
2023-05-07T23:45:33.779Z,26.00
2023-05-07T23:48:01.137Z,25.10
2023-05-07T23:50:28.539Z,25.02
2023-05-07T23:52:55.834Z,24.02
2023-05-07T23:55:23.150Z,23.17
2023-05-07T23:57:51.837Z,22.27
